sensor_id;sensor_type;location;lat;lon;timestamp;temperature;humidity
47961;DHT22;33721;48.852;9.936;2023-07-30T00:02:17;17.10;99.90
47961;DHT22;33721;48.852;9.936;2023-07-30T00:04:44;16.90;99.90
47961;DHT22;33721;48.852;9.936;2023-07-30T00:07:11;16.70;99.90
47961;DHT22;33721;48.852;9.936;2023-07-30T00:09:37;16.60;99.90
47961;DHT22;33721;48.852;9.936;2023-07-30T00:12:07;16.50;99.90
47961;DHT22;33721;48.852;9.936;2023-07-30T00:14:33;16.40;99.90
47961;DHT22;33721;48.852;9.936;2023-07-30T00:16:58;16.40;99.90
47961;DHT22;33721;48.852;9.936;2023-07-30T00:19:24;16.30;99.90
47961;DHT22;33721;48.852;9.936;2023-07-30T00:21:50;16.30;99.90
47961;DHT22;33721;48.852;9.936;2023-07-30T00:24:18;16.30;99.90
47961;DHT22;33721;48.852;9.936;2023-07-30T00:26:44;16.30;99.90
47961;DHT22;33721;48.852;9.936;2023-07-30T00:29:10;16.20;99.90
47961;DHT22;33721;48.852;9.936;2023-07-30T00:31:35;16.10;99.90
47961;DHT22;33721;48.852;9.936;2023-07-30T00:34:01;16.00;99.90
47961;DHT22;33721;48.852;9.936;2023-07-30T00:36:27;16.00;99.90
47961;DHT22;33721;48.852;9.936;2023-07-30T00:38:52;16.00;99.90
47961;DHT22;33721;48.852;9.936;2023-07-30T00:41:18;16.00;99.90
47961;DHT22;33721;48.852;9.936;2023-07-30T00:43:43;16.10;99.90
47961;DHT22;33721;48.852;9.936;2023-07-30T00:46:10;16.10;99.90
47961;DHT22;33721;48.852;9.936;2023-07-30T00:48:37;16.10;99.90
47961;DHT22;33721;48.852;9.936;2023-07-30T00:51:03;16.10;99.90
47961;DHT22;33721;48.852;9.936;2023-07-30T00:53:29;16.10;99.90
47961;DHT22;33721;48.852;9.936;2023-07-30T00:55:55;16.10;99.90
47961;DHT22;33721;48.852;9.936;2023-07-30T00:58:21;16.10;99.90
47961;DHT22;33721;48.852;9.936;2023-07-30T01:00:48;16.10;99.90
47961;DHT22;33721;48.852;9.936;2023-07-30T01:03:14;16.00;99.90
47961;DHT22;33721;48.852;9.936;2023-07-30T01:05:39;16.00;99.90
47961;DHT22;33721;48.852;9.936;2023-07-30T01:08:05;16.00;99.90
47961;DHT22;33721;48.852;9.936;2023-07-30T01:10:32;16.00;99.90
47961;DHT22;33721;48.852;9.936;2023-07-30T01:13:01;16.00;99.90
47961;DHT22;33721;48.852;9.936;2023-07-30T01:15:29;16.00;99.90
47961;DHT22;33721;48.852;9.936;2023-07-30T01:17:55;16.00;99.90
47961;DHT22;33721;48.852;9.936;2023-07-30T01:20:21;16.10;99.90
47961;DHT22;33721;48.852;9.936;2023-07-30T01:22:47;16.10;99.90
47961;DHT22;33721;48.852;9.936;2023-07-30T01:25:13;16.10;99.90
47961;DHT22;33721;48.852;9.936;2023-07-30T01:27:41;16.10;99.90
47961;DHT22;33721;48.852;9.936;2023-07-30T01:30:15;16.00;99.90
47961;DHT22;33721;48.852;9.936;2023-07-30T01:32:43;16.10;99.90
47961;DHT22;33721;48.852;9.936;2023-07-30T01:35:11;16.10;99.90
47961;DHT22;33721;48.852;9.936;2023-07-30T01:37:39;16.00;99.90
47961;DHT22;33721;48.852;9.936;2023-07-30T01:40:07;16.10;99.90
47961;DHT22;33721;48.852;9.936;2023-07-30T01:42:33;16.10;99.90
47961;DHT22;33721;48.852;9.936;2023-07-30T01:44:59;16.10;99.90
47961;DHT22;33721;48.852;9.936;2023-07-30T01:47:24;16.10;99.90
47961;DHT22;33721;48.852;9.936;2023-07-30T01:49:50;16.10;99.90
47961;DHT22;33721;48.852;9.936;2023-07-30T01:52:15;16.10;99.90
47961;DHT22;33721;48.852;9.936;2023-07-30T01:54:41;16.10;99.90
47961;DHT22;33721;48.852;9.936;2023-07-30T01:57:08;16.10;99.90
47961;DHT22;33721;48.852;9.936;2023-07-30T01:59:33;16.10;99.90
47961;DHT22;33721;48.852;9.936;2023-07-30T02:01:59;16.10;99.90
47961;DHT22;33721;48.852;9.936;2023-07-30T02:04:24;16.10;99.90
47961;DHT22;33721;48.852;9.936;2023-07-30T02:06:50;16.10;99.90
47961;DHT22;33721;48.852;9.936;2023-07-30T02:09:16;16.10;99.90
47961;DHT22;33721;48.852;9.936;2023-07-30T02:11:44;16.10;99.90
47961;DHT22;33721;48.852;9.936;2023-07-30T02:14:10;16.00;99.90
47961;DHT22;33721;48.852;9.936;2023-07-30T02:16:36;16.00;99.90
47961;DHT22;33721;48.852;9.936;2023-07-30T02:19:01;15.90;99.90
47961;DHT22;33721;48.852;9.936;2023-07-30T02:21:27;15.90;99.90
47961;DHT22;33721;48.852;9.936;2023-07-30T02:23:53;15.80;99.90
47961;DHT22;33721;48.852;9.936;2023-07-30T02:26:18;15.80;99.90
47961;DHT22;33721;48.852;9.936;2023-07-30T02:28:44;15.80;99.90
47961;DHT22;33721;48.852;9.936;2023-07-30T02:31:10;15.70;99.90
47961;DHT22;33721;48.852;9.936;2023-07-30T02:33:35;15.60;99.90
47961;DHT22;33721;48.852;9.936;2023-07-30T02:36:01;15.60;99.90
47961;DHT22;33721;48.852;9.936;2023-07-30T02:38:26;15.60;99.90
47961;DHT22;33721;48.852;9.936;2023-07-30T02:40:52;15.60;99.90
47961;DHT22;33721;48.852;9.936;2023-07-30T02:43:18;15.60;99.90
47961;DHT22;33721;48.852;9.936;2023-07-30T02:45:47;15.70;99.90
47961;DHT22;33721;48.852;9.936;2023-07-30T02:48:13;15.70;99.90
47961;DHT22;33721;48.852;9.936;2023-07-30T02:50:38;15.80;99.90
47961;DHT22;33721;48.852;9.936;2023-07-30T02:53:04;15.90;99.90
47961;DHT22;33721;48.852;9.936;2023-07-30T02:55:29;15.90;99.90
47961;DHT22;33721;48.852;9.936;2023-07-30T02:57:55;16.00;99.90
47961;DHT22;33721;48.852;9.936;2023-07-30T03:00:21;15.90;99.90
47961;DHT22;33721;48.852;9.936;2023-07-30T03:02:46;15.90;99.90
47961;DHT22;33721;48.852;9.936;2023-07-30T03:05:12;15.90;99.90
47961;DHT22;33721;48.852;9.936;2023-07-30T03:07:37;15.90;99.90
47961;DHT22;33721;48.852;9.936;2023-07-30T03:10:03;15.90;99.90
47961;DHT22;33721;48.852;9.936;2023-07-30T03:12:29;15.90;99.90
47961;DHT22;33721;48.852;9.936;2023-07-30T03:14:55;16.00;99.90
47961;DHT22;33721;48.852;9.936;2023-07-30T03:17:20;16.00;99.90
47961;DHT22;33721;48.852;9.936;2023-07-30T03:19:46;16.00;99.90
47961;DHT22;33721;48.852;9.936;2023-07-30T03:22:12;16.00;99.90
47961;DHT22;33721;48.852;9.936;2023-07-30T03:24:37;16.00;99.90
47961;DHT22;33721;48.852;9.936;2023-07-30T03:27:03;16.00;99.90
47961;DHT22;33721;48.852;9.936;2023-07-30T03:29:29;16.00;99.90
47961;DHT22;33721;48.852;9.936;2023-07-30T03:31:54;16.10;99.90
47961;DHT22;33721;48.852;9.936;2023-07-30T03:34:20;16.10;99.90
47961;DHT22;33721;48.852;9.936;2023-07-30T03:36:46;16.10;99.90
47961;DHT22;33721;48.852;9.936;2023-07-30T03:39:11;16.10;99.90
47961;DHT22;33721;48.852;9.936;2023-07-30T03:41:37;16.10;99.90
47961;DHT22;33721;48.852;9.936;2023-07-30T03:44:03;16.20;99.90
47961;DHT22;33721;48.852;9.936;2023-07-30T03:46:28;16.20;99.90
47961;DHT22;33721;48.852;9.936;2023-07-30T03:48:54;16.10;99.90
47961;DHT22;33721;48.852;9.936;2023-07-30T03:51:20;16.10;99.90
47961;DHT22;33721;48.852;9.936;2023-07-30T03:53:45;16.10;99.90
47961;DHT22;33721;48.852;9.936;2023-07-30T03:56:11;16.00;99.90
47961;DHT22;33721;48.852;9.936;2023-07-30T03:58:37;16.00;99.90
47961;DHT22;33721;48.852;9.936;2023-07-30T04:01:02;16.00;99.90
47961;DHT22;33721;48.852;9.936;2023-07-30T04:03:28;16.10;99.90
47961;DHT22;33721;48.852;9.936;2023-07-30T04:05:54;16.10;99.90
47961;DHT22;33721;48.852;9.936;2023-07-30T04:08:19;16.20;99.90
47961;DHT22;33721;48.852;9.936;2023-07-30T04:10:46;16.30;99.90
47961;DHT22;33721;48.852;9.936;2023-07-30T04:13:11;16.40;99.90
47961;DHT22;33721;48.852;9.936;2023-07-30T04:15:37;16.40;99.90
47961;DHT22;33721;48.852;9.936;2023-07-30T04:18:03;16.50;99.90
47961;DHT22;33721;48.852;9.936;2023-07-30T04:20:28;16.50;99.90
47961;DHT22;33721;48.852;9.936;2023-07-30T04:22:54;16.50;99.90
47961;DHT22;33721;48.852;9.936;2023-07-30T04:25:19;16.60;99.90
47961;DHT22;33721;48.852;9.936;2023-07-30T04:27:45;16.70;99.90
47961;DHT22;33721;48.852;9.936;2023-07-30T04:30:11;16.70;99.90
47961;DHT22;33721;48.852;9.936;2023-07-30T04:32:37;16.70;99.90
47961;DHT22;33721;48.852;9.936;2023-07-30T04:35:02;16.70;99.90
47961;DHT22;33721;48.852;9.936;2023-07-30T04:37:28;16.70;99.90
47961;DHT22;33721;48.852;9.936;2023-07-30T04:39:54;16.70;99.90
47961;DHT22;33721;48.852;9.936;2023-07-30T04:42:20;16.80;99.90
47961;DHT22;33721;48.852;9.936;2023-07-30T04:44:45;16.80;99.90
47961;DHT22;33721;48.852;9.936;2023-07-30T04:47:11;16.80;99.90
47961;DHT22;33721;48.852;9.936;2023-07-30T04:49:36;16.80;99.90
47961;DHT22;33721;48.852;9.936;2023-07-30T04:52:08;16.80;99.90
47961;DHT22;33721;48.852;9.936;2023-07-30T04:54:34;16.80;99.90
47961;DHT22;33721;48.852;9.936;2023-07-30T04:57:02;16.80;99.90
47961;DHT22;33721;48.852;9.936;2023-07-30T04:59:28;16.90;99.90
47961;DHT22;33721;48.852;9.936;2023-07-30T05:01:53;16.90;99.90
47961;DHT22;33721;48.852;9.936;2023-07-30T05:04:19;17.10;99.90
47961;DHT22;33721;48.852;9.936;2023-07-30T05:06:44;17.20;99.90
47961;DHT22;33721;48.852;9.936;2023-07-30T05:09:10;17.30;99.90
47961;DHT22;33721;48.852;9.936;2023-07-30T05:11:38;17.40;99.90
47961;DHT22;33721;48.852;9.936;2023-07-30T05:14:04;17.40;99.90
47961;DHT22;33721;48.852;9.936;2023-07-30T05:16:29;17.50;99.90
47961;DHT22;33721;48.852;9.936;2023-07-30T05:18:55;17.50;99.90
47961;DHT22;33721;48.852;9.936;2023-07-30T05:21:20;17.50;99.90
47961;DHT22;33721;48.852;9.936;2023-07-30T05:23:46;17.50;99.90
47961;DHT22;33721;48.852;9.936;2023-07-30T05:26:12;17.50;99.90
47961;DHT22;33721;48.852;9.936;2023-07-30T05:28:37;17.60;99.90
47961;DHT22;33721;48.852;9.936;2023-07-30T05:31:03;17.60;99.90
47961;DHT22;33721;48.852;9.936;2023-07-30T05:33:28;17.60;99.90
47961;DHT22;33721;48.852;9.936;2023-07-30T05:35:54;17.70;99.90
47961;DHT22;33721;48.852;9.936;2023-07-30T05:38:20;17.80;99.90
47961;DHT22;33721;48.852;9.936;2023-07-30T05:40:45;17.80;99.90
47961;DHT22;33721;48.852;9.936;2023-07-30T05:43:11;17.70;99.90
47961;DHT22;33721;48.852;9.936;2023-07-30T05:45:36;17.70;99.90
47961;DHT22;33721;48.852;9.936;2023-07-30T05:48:02;17.60;99.90
47961;DHT22;33721;48.852;9.936;2023-07-30T05:50:28;17.50;99.90
47961;DHT22;33721;48.852;9.936;2023-07-30T05:52:53;17.60;99.90
47961;DHT22;33721;48.852;9.936;2023-07-30T05:55:19;17.50;99.90
47961;DHT22;33721;48.852;9.936;2023-07-30T05:57:45;17.50;99.90
47961;DHT22;33721;48.852;9.936;2023-07-30T06:00:11;17.40;99.90
47961;DHT22;33721;48.852;9.936;2023-07-30T06:02:37;17.40;99.90
47961;DHT22;33721;48.852;9.936;2023-07-30T06:05:03;17.40;99.90
47961;DHT22;33721;48.852;9.936;2023-07-30T06:07:29;17.40;99.90
47961;DHT22;33721;48.852;9.936;2023-07-30T06:09:54;17.40;99.90
47961;DHT22;33721;48.852;9.936;2023-07-30T06:12:20;17.40;99.90
47961;DHT22;33721;48.852;9.936;2023-07-30T06:14:45;17.40;99.90
47961;DHT22;33721;48.852;9.936;2023-07-30T06:17:11;17.50;99.90
47961;DHT22;33721;48.852;9.936;2023-07-30T06:19:39;17.40;99.90
47961;DHT22;33721;48.852;9.936;2023-07-30T06:22:05;17.40;99.90
47961;DHT22;33721;48.852;9.936;2023-07-30T06:24:31;17.40;99.90
47961;DHT22;33721;48.852;9.936;2023-07-30T06:26:56;17.40;99.90
47961;DHT22;33721;48.852;9.936;2023-07-30T06:29:24;17.40;99.90
47961;DHT22;33721;48.852;9.936;2023-07-30T06:31:50;17.40;99.90
47961;DHT22;33721;48.852;9.936;2023-07-30T06:34:15;17.40;99.90
47961;DHT22;33721;48.852;9.936;2023-07-30T06:36:41;17.40;99.90
47961;DHT22;33721;48.852;9.936;2023-07-30T06:39:07;17.40;99.90
47961;DHT22;33721;48.852;9.936;2023-07-30T06:41:32;17.40;99.90
47961;DHT22;33721;48.852;9.936;2023-07-30T06:43:58;17.40;99.90
47961;DHT22;33721;48.852;9.936;2023-07-30T06:46:24;17.30;99.90
47961;DHT22;33721;48.852;9.936;2023-07-30T06:48:49;17.30;99.90
47961;DHT22;33721;48.852;9.936;2023-07-30T06:51:19;17.40;99.90
47961;DHT22;33721;48.852;9.936;2023-07-30T06:53:44;17.30;99.90
47961;DHT22;33721;48.852;9.936;2023-07-30T06:56:10;17.30;99.90
47961;DHT22;33721;48.852;9.936;2023-07-30T06:58:35;17.40;99.90
47961;DHT22;33721;48.852;9.936;2023-07-30T07:01:01;17.40;99.90
47961;DHT22;33721;48.852;9.936;2023-07-30T07:03:26;17.50;99.90
47961;DHT22;33721;48.852;9.936;2023-07-30T07:05:56;17.50;99.90
47961;DHT22;33721;48.852;9.936;2023-07-30T07:08:22;17.70;99.90
47961;DHT22;33721;48.852;9.936;2023-07-30T07:10:49;17.80;99.90
47961;DHT22;33721;48.852;9.936;2023-07-30T07:13:14;18.10;99.90
47961;DHT22;33721;48.852;9.936;2023-07-30T07:15:44;18.30;99.90
47961;DHT22;33721;48.852;9.936;2023-07-30T07:18:10;18.30;99.90
47961;DHT22;33721;48.852;9.936;2023-07-30T07:20:36;18.30;99.90
47961;DHT22;33721;48.852;9.936;2023-07-30T07:23:02;18.20;99.90
47961;DHT22;33721;48.852;9.936;2023-07-30T07:25:28;18.10;99.90
47961;DHT22;33721;48.852;9.936;2023-07-30T07:27:53;18.10;99.90
47961;DHT22;33721;48.852;9.936;2023-07-30T07:30:19;18.10;99.90
47961;DHT22;33721;48.852;9.936;2023-07-30T07:32:45;18.00;99.90
47961;DHT22;33721;48.852;9.936;2023-07-30T07:35:10;18.10;99.90
47961;DHT22;33721;48.852;9.936;2023-07-30T07:37:36;18.00;99.90
47961;DHT22;33721;48.852;9.936;2023-07-30T07:40:02;18.10;99.90
47961;DHT22;33721;48.852;9.936;2023-07-30T07:42:29;18.30;99.90
47961;DHT22;33721;48.852;9.936;2023-07-30T07:44:56;18.70;99.90
47961;DHT22;33721;48.852;9.936;2023-07-30T07:47:21;18.80;99.90
47961;DHT22;33721;48.852;9.936;2023-07-30T07:49:47;18.80;99.90
47961;DHT22;33721;48.852;9.936;2023-07-30T07:52:13;18.80;99.90
47961;DHT22;33721;48.852;9.936;2023-07-30T07:54:40;18.70;99.90
47961;DHT22;33721;48.852;9.936;2023-07-30T07:57:07;18.70;99.90
47961;DHT22;33721;48.852;9.936;2023-07-30T07:59:33;18.60;99.90
47961;DHT22;33721;48.852;9.936;2023-07-30T08:01:58;18.70;99.90
47961;DHT22;33721;48.852;9.936;2023-07-30T08:04:24;18.70;99.90
47961;DHT22;33721;48.852;9.936;2023-07-30T08:06:50;18.70;99.90
47961;DHT22;33721;48.852;9.936;2023-07-30T08:09:15;18.70;99.90
47961;DHT22;33721;48.852;9.936;2023-07-30T08:11:41;18.70;99.90
47961;DHT22;33721;48.852;9.936;2023-07-30T08:14:06;18.60;99.90
47961;DHT22;33721;48.852;9.936;2023-07-30T08:16:32;18.60;99.90
47961;DHT22;33721;48.852;9.936;2023-07-30T08:18:58;18.60;99.90
47961;DHT22;33721;48.852;9.936;2023-07-30T08:21:23;18.60;99.90
47961;DHT22;33721;48.852;9.936;2023-07-30T08:23:49;18.50;99.90
47961;DHT22;33721;48.852;9.936;2023-07-30T08:26:15;18.40;99.90
47961;DHT22;33721;48.852;9.936;2023-07-30T08:28:40;18.40;99.90
47961;DHT22;33721;48.852;9.936;2023-07-30T08:31:06;18.30;99.90
47961;DHT22;33721;48.852;9.936;2023-07-30T08:33:32;18.30;99.90
47961;DHT22;33721;48.852;9.936;2023-07-30T08:35:58;18.40;99.90
47961;DHT22;33721;48.852;9.936;2023-07-30T08:38:25;18.40;99.90
47961;DHT22;33721;48.852;9.936;2023-07-30T08:40:51;18.60;99.90
47961;DHT22;33721;48.852;9.936;2023-07-30T08:43:18;18.60;99.90
47961;DHT22;33721;48.852;9.936;2023-07-30T08:45:44;18.60;99.90
47961;DHT22;33721;48.852;9.936;2023-07-30T08:48:10;18.40;99.90
47961;DHT22;33721;48.852;9.936;2023-07-30T08:50:37;18.30;99.90
47961;DHT22;33721;48.852;9.936;2023-07-30T08:53:03;18.20;99.90
47961;DHT22;33721;48.852;9.936;2023-07-30T08:55:29;18.00;99.90
47961;DHT22;33721;48.852;9.936;2023-07-30T08:58:01;17.90;99.90
47961;DHT22;33721;48.852;9.936;2023-07-30T09:00:31;17.80;99.90
47961;DHT22;33721;48.852;9.936;2023-07-30T09:02:59;17.70;99.90
47961;DHT22;33721;48.852;9.936;2023-07-30T09:05:26;17.60;99.90
47961;DHT22;33721;48.852;9.936;2023-07-30T09:07:55;17.50;99.90
47961;DHT22;33721;48.852;9.936;2023-07-30T09:10:22;17.40;99.90
47961;DHT22;33721;48.852;9.936;2023-07-30T09:12:57;17.40;99.90
47961;DHT22;33721;48.852;9.936;2023-07-30T09:15:30;17.50;99.90
47961;DHT22;33721;48.852;9.936;2023-07-30T09:17:57;17.70;99.90
47961;DHT22;33721;48.852;9.936;2023-07-30T09:20:23;17.80;99.90
47961;DHT22;33721;48.852;9.936;2023-07-30T09:22:49;18.00;99.90
47961;DHT22;33721;48.852;9.936;2023-07-30T09:25:18;18.10;99.90
47961;DHT22;33721;48.852;9.936;2023-07-30T09:27:49;18.30;99.90
47961;DHT22;33721;48.852;9.936;2023-07-30T09:30:15;18.20;99.90
47961;DHT22;33721;48.852;9.936;2023-07-30T09:32:51;18.30;99.90
47961;DHT22;33721;48.852;9.936;2023-07-30T09:35:18;18.40;99.90
47961;DHT22;33721;48.852;9.936;2023-07-30T09:37:45;18.50;99.90
47961;DHT22;33721;48.852;9.936;2023-07-30T09:40:12;18.50;99.90
47961;DHT22;33721;48.852;9.936;2023-07-30T09:42:41;18.60;99.90
47961;DHT22;33721;48.852;9.936;2023-07-30T09:45:16;18.60;99.90
47961;DHT22;33721;48.852;9.936;2023-07-30T09:47:49;18.60;99.90
47961;DHT22;33721;48.852;9.936;2023-07-30T09:50:15;18.60;99.90
47961;DHT22;33721;48.852;9.936;2023-07-30T09:52:42;18.90;99.90
47961;DHT22;33721;48.852;9.936;2023-07-30T09:55:08;18.90;99.90
47961;DHT22;33721;48.852;9.936;2023-07-30T09:57:34;19.10;99.90
47961;DHT22;33721;48.852;9.936;2023-07-30T10:00:01;19.40;99.90
47961;DHT22;33721;48.852;9.936;2023-07-30T10:02:28;19.40;99.90
47961;DHT22;33721;48.852;9.936;2023-07-30T10:04:57;19.40;99.90
47961;DHT22;33721;48.852;9.936;2023-07-30T10:07:25;19.10;99.90
47961;DHT22;33721;48.852;9.936;2023-07-30T10:09:53;18.90;99.90
47961;DHT22;33721;48.852;9.936;2023-07-30T10:12:25;18.90;99.90
47961;DHT22;33721;48.852;9.936;2023-07-30T10:14:52;18.90;99.90
47961;DHT22;33721;48.852;9.936;2023-07-30T10:17:18;18.90;99.90
47961;DHT22;33721;48.852;9.936;2023-07-30T10:19:48;18.90;99.90
47961;DHT22;33721;48.852;9.936;2023-07-30T10:24:59;18.80;99.90
47961;DHT22;33721;48.852;9.936;2023-07-30T10:27:26;18.80;99.90
47961;DHT22;33721;48.852;9.936;2023-07-30T10:30:09;18.80;99.90
47961;DHT22;33721;48.852;9.936;2023-07-30T10:32:42;18.70;99.90
47961;DHT22;33721;48.852;9.936;2023-07-30T10:35:43;18.70;99.90
47961;DHT22;33721;48.852;9.936;2023-07-30T10:38:37;18.90;99.90
47961;DHT22;33721;48.852;9.936;2023-07-30T10:41:09;19.00;99.90
47961;DHT22;33721;48.852;9.936;2023-07-30T10:43:40;19.20;99.90
47961;DHT22;33721;48.852;9.936;2023-07-30T10:46:06;19.20;99.90
47961;DHT22;33721;48.852;9.936;2023-07-30T10:48:37;19.10;99.90
47961;DHT22;33721;48.852;9.936;2023-07-30T10:51:05;19.00;99.90
47961;DHT22;33721;48.852;9.936;2023-07-30T10:53:31;18.80;99.90
47961;DHT22;33721;48.852;9.936;2023-07-30T10:55:59;18.60;99.90
47961;DHT22;33721;48.852;9.936;2023-07-30T10:58:27;18.50;99.90
47961;DHT22;33721;48.852;9.936;2023-07-30T11:00:54;18.50;99.90
47961;DHT22;33721;48.852;9.936;2023-07-30T11:03:19;18.50;99.90
47961;DHT22;33721;48.852;9.936;2023-07-30T11:05:48;18.50;99.90
47961;DHT22;33721;48.852;9.936;2023-07-30T11:08:14;18.60;99.90
47961;DHT22;33721;48.852;9.936;2023-07-30T11:10:47;18.70;99.90
47961;DHT22;33721;48.852;9.936;2023-07-30T11:13:13;18.90;99.90
47961;DHT22;33721;48.852;9.936;2023-07-30T11:15:43;19.10;99.90
47961;DHT22;33721;48.852;9.936;2023-07-30T11:18:10;19.30;99.90
47961;DHT22;33721;48.852;9.936;2023-07-30T11:20:36;19.50;99.90
47961;DHT22;33721;48.852;9.936;2023-07-30T11:23:02;19.70;99.90
47961;DHT22;33721;48.852;9.936;2023-07-30T11:25:28;19.70;99.90
47961;DHT22;33721;48.852;9.936;2023-07-30T11:27:54;19.90;99.90
47961;DHT22;33721;48.852;9.936;2023-07-30T11:30:19;20.20;99.90
47961;DHT22;33721;48.852;9.936;2023-07-30T11:32:45;20.50;99.90
47961;DHT22;33721;48.852;9.936;2023-07-30T11:35:11;20.70;99.90
47961;DHT22;33721;48.852;9.936;2023-07-30T11:37:39;20.60;99.90
47961;DHT22;33721;48.852;9.936;2023-07-30T11:40:09;20.70;99.90
47961;DHT22;33721;48.852;9.936;2023-07-30T11:42:36;20.70;99.90
47961;DHT22;33721;48.852;9.936;2023-07-30T11:45:23;20.70;99.90
47961;DHT22;33721;48.852;9.936;2023-07-30T11:47:49;20.50;99.90
47961;DHT22;33721;48.852;9.936;2023-07-30T11:50:15;20.40;99.90
47961;DHT22;33721;48.852;9.936;2023-07-30T11:52:55;20.40;99.90
47961;DHT22;33721;48.852;9.936;2023-07-30T11:55:22;20.80;99.90
47961;DHT22;33721;48.852;9.936;2023-07-30T11:57:50;20.90;99.90
47961;DHT22;33721;48.852;9.936;2023-07-30T12:00:16;21.10;99.90
47961;DHT22;33721;48.852;9.936;2023-07-30T12:02:41;21.10;99.90
47961;DHT22;33721;48.852;9.936;2023-07-30T12:05:10;20.70;99.90
47961;DHT22;33721;48.852;9.936;2023-07-30T12:07:40;20.40;99.90
47961;DHT22;33721;48.852;9.936;2023-07-30T12:10:11;20.20;99.90
47961;DHT22;33721;48.852;9.936;2023-07-30T12:12:43;20.10;99.90
47961;DHT22;33721;48.852;9.936;2023-07-30T12:15:11;20.00;99.90
47961;DHT22;33721;48.852;9.936;2023-07-30T12:17:40;20.10;99.90
47961;DHT22;33721;48.852;9.936;2023-07-30T12:20:06;20.10;99.90
47961;DHT22;33721;48.852;9.936;2023-07-30T12:22:35;20.60;99.90
47961;DHT22;33721;48.852;9.936;2023-07-30T12:25:02;20.80;99.90
47961;DHT22;33721;48.852;9.936;2023-07-30T12:27:29;21.00;99.90
47961;DHT22;33721;48.852;9.936;2023-07-30T12:29:55;21.40;99.90
47961;DHT22;33721;48.852;9.936;2023-07-30T12:32:20;21.60;99.90
47961;DHT22;33721;48.852;9.936;2023-07-30T12:34:46;21.70;99.90
47961;DHT22;33721;48.852;9.936;2023-07-30T12:37:12;21.60;99.90
47961;DHT22;33721;48.852;9.936;2023-07-30T12:39:37;21.50;99.90
47961;DHT22;33721;48.852;9.936;2023-07-30T12:42:03;21.60;99.90
47961;DHT22;33721;48.852;9.936;2023-07-30T12:44:29;21.70;99.90
47961;DHT22;33721;48.852;9.936;2023-07-30T12:46:54;21.60;99.90
47961;DHT22;33721;48.852;9.936;2023-07-30T12:49:20;21.60;99.90
47961;DHT22;33721;48.852;9.936;2023-07-30T12:51:46;21.80;99.90
47961;DHT22;33721;48.852;9.936;2023-07-30T12:54:11;21.60;99.90
47961;DHT22;33721;48.852;9.936;2023-07-30T12:56:37;21.80;99.90
47961;DHT22;33721;48.852;9.936;2023-07-30T12:59:03;21.80;99.90
47961;DHT22;33721;48.852;9.936;2023-07-30T13:01:28;22.00;99.90
47961;DHT22;33721;48.852;9.936;2023-07-30T13:03:54;22.10;99.90
47961;DHT22;33721;48.852;9.936;2023-07-30T13:06:22;21.90;99.90
47961;DHT22;33721;48.852;9.936;2023-07-30T13:08:48;21.70;99.90
47961;DHT22;33721;48.852;9.936;2023-07-30T13:11:14;21.90;99.90
47961;DHT22;33721;48.852;9.936;2023-07-30T13:13:39;22.00;99.90
47961;DHT22;33721;48.852;9.936;2023-07-30T13:16:05;22.00;99.90
47961;DHT22;33721;48.852;9.936;2023-07-30T13:18:31;21.90;99.90
47961;DHT22;33721;48.852;9.936;2023-07-30T13:20:56;22.10;99.90
47961;DHT22;33721;48.852;9.936;2023-07-30T13:23:22;22.10;99.90
47961;DHT22;33721;48.852;9.936;2023-07-30T13:25:50;22.20;99.90
47961;DHT22;33721;48.852;9.936;2023-07-30T13:28:16;22.40;99.90
47961;DHT22;33721;48.852;9.936;2023-07-30T13:30:42;22.20;99.90
47961;DHT22;33721;48.852;9.936;2023-07-30T13:33:07;22.20;99.90
47961;DHT22;33721;48.852;9.936;2023-07-30T13:35:33;22.20;99.90
47961;DHT22;33721;48.852;9.936;2023-07-30T13:37:59;22.20;99.90
47961;DHT22;33721;48.852;9.936;2023-07-30T13:40:25;22.30;99.90
47961;DHT22;33721;48.852;9.936;2023-07-30T13:42:50;22.50;99.90
47961;DHT22;33721;48.852;9.936;2023-07-30T13:45:16;22.30;99.90
47961;DHT22;33721;48.852;9.936;2023-07-30T13:47:41;22.30;99.90
47961;DHT22;33721;48.852;9.936;2023-07-30T13:50:07;22.40;99.90
47961;DHT22;33721;48.852;9.936;2023-07-30T13:52:33;22.30;99.90
47961;DHT22;33721;48.852;9.936;2023-07-30T13:54:59;22.60;99.90
47961;DHT22;33721;48.852;9.936;2023-07-30T13:57:25;22.50;99.90
47961;DHT22;33721;48.852;9.936;2023-07-30T13:59:51;22.50;99.90
47961;DHT22;33721;48.852;9.936;2023-07-30T14:02:18;22.40;99.90
47961;DHT22;33721;48.852;9.936;2023-07-30T14:04:43;22.00;99.90
47961;DHT22;33721;48.852;9.936;2023-07-30T14:07:09;22.10;99.90
47961;DHT22;33721;48.852;9.936;2023-07-30T14:09:34;22.20;99.90
47961;DHT22;33721;48.852;9.936;2023-07-30T14:12:02;22.30;99.90
47961;DHT22;33721;48.852;9.936;2023-07-30T14:14:28;22.70;99.90
47961;DHT22;33721;48.852;9.936;2023-07-30T14:16:54;22.80;99.90
47961;DHT22;33721;48.852;9.936;2023-07-30T14:19:20;22.50;99.90
47961;DHT22;33721;48.852;9.936;2023-07-30T14:21:46;22.50;99.90
47961;DHT22;33721;48.852;9.936;2023-07-30T14:24:11;22.50;99.90
47961;DHT22;33721;48.852;9.936;2023-07-30T14:26:37;22.60;99.90
47961;DHT22;33721;48.852;9.936;2023-07-30T14:29:03;22.20;99.90
47961;DHT22;33721;48.852;9.936;2023-07-30T14:31:28;22.20;99.90
47961;DHT22;33721;48.852;9.936;2023-07-30T14:33:54;22.10;99.90
47961;DHT22;33721;48.852;9.936;2023-07-30T14:36:19;22.00;99.90
47961;DHT22;33721;48.852;9.936;2023-07-30T14:38:45;22.00;99.90
47961;DHT22;33721;48.852;9.936;2023-07-30T14:41:11;22.00;99.90
47961;DHT22;33721;48.852;9.936;2023-07-30T14:43:37;22.10;99.90
47961;DHT22;33721;48.852;9.936;2023-07-30T14:46:02;22.20;99.90
47961;DHT22;33721;48.852;9.936;2023-07-30T14:48:28;22.20;99.90
47961;DHT22;33721;48.852;9.936;2023-07-30T14:50:54;22.00;99.90
47961;DHT22;33721;48.852;9.936;2023-07-30T14:53:20;21.70;99.90
47961;DHT22;33721;48.852;9.936;2023-07-30T14:55:46;21.60;99.90
47961;DHT22;33721;48.852;9.936;2023-07-30T14:58:11;21.80;99.90
47961;DHT22;33721;48.852;9.936;2023-07-30T15:00:37;21.90;99.90
47961;DHT22;33721;48.852;9.936;2023-07-30T15:03:03;21.90;99.90
47961;DHT22;33721;48.852;9.936;2023-07-30T15:05:30;22.00;99.90
47961;DHT22;33721;48.852;9.936;2023-07-30T15:07:56;21.80;99.90
47961;DHT22;33721;48.852;9.936;2023-07-30T15:10:22;21.60;99.90
47961;DHT22;33721;48.852;9.936;2023-07-30T15:12:47;21.50;99.90
47961;DHT22;33721;48.852;9.936;2023-07-30T15:15:13;21.20;99.90
47961;DHT22;33721;48.852;9.936;2023-07-30T15:17:39;21.30;99.90
47961;DHT22;33721;48.852;9.936;2023-07-30T15:20:05;21.50;99.90
47961;DHT22;33721;48.852;9.936;2023-07-30T15:22:31;21.20;99.90
47961;DHT22;33721;48.852;9.936;2023-07-30T15:24:56;21.10;99.90
47961;DHT22;33721;48.852;9.936;2023-07-30T15:27:22;21.10;99.90
47961;DHT22;33721;48.852;9.936;2023-07-30T15:29:47;21.10;99.90